createdAt,value
2022-11-16T00:00:40.528Z,36.83
2022-11-16T00:04:40.549Z,36.9
2022-11-16T00:08:40.475Z,37.8
2022-11-16T00:12:40.725Z,36.97
2022-11-16T00:16:40.512Z,39.2
2022-11-16T00:20:40.550Z,37.57
2022-11-16T00:24:40.271Z,39.2
2022-11-16T00:28:40.544Z,38.37
2022-11-16T00:32:40.921Z,41.1
2022-11-16T00:36:40.415Z,41.27
2022-11-16T00:40:40.558Z,44.37
2022-11-16T00:44:40.514Z,44.53
2022-11-16T00:48:40.425Z,41.87
2022-11-16T00:52:39.897Z,44.7
2022-11-16T00:56:41.198Z,44.97
2022-11-16T01:00:40.629Z,46
2022-11-16T01:04:40.804Z,44.27
2022-11-16T01:08:40.536Z,42.8
2022-11-16T01:12:40.499Z,48.43
2022-11-16T01:16:40.613Z,47.17
2022-11-16T01:20:41.247Z,48
2022-11-16T01:24:40.388Z,47.5
2022-11-16T01:28:40.587Z,48.47
2022-11-16T01:32:40.630Z,44.17
2022-11-16T01:36:40.456Z,44.87
2022-11-16T01:40:40.643Z,44.7
2022-11-16T01:44:40.458Z,44.77
2022-11-16T01:48:39.505Z,43.67
2022-11-16T01:52:40.498Z,46.1
2022-11-16T01:56:40.391Z,49.8
2022-11-16T02:00:41.257Z,37.33
2022-11-16T02:04:40.517Z,47.67
2022-11-16T02:08:40.655Z,53.17
2022-11-16T02:12:40.581Z,55.4
2022-11-16T02:16:40.467Z,56.2
2022-11-16T02:20:40.591Z,53.47
2022-11-16T02:24:40.539Z,60.6
2022-11-16T02:28:40.726Z,57.03
2022-11-16T02:32:40.623Z,64.47
2022-11-16T02:36:41.219Z,62.77
2022-11-16T02:40:40.470Z,58.9
2022-11-16T02:44:40.443Z,62.57
2022-11-16T02:48:40.852Z,65
2022-11-16T02:52:40.511Z,72.07
2022-11-16T02:56:40.854Z,65
2022-11-16T03:00:40.446Z,62.1
2022-11-16T03:04:40.359Z,68.7
2022-11-16T03:08:39.535Z,71.53
2022-11-16T03:12:40.525Z,69.63
2022-11-16T03:16:40.405Z,60.1
2022-11-16T03:20:40.464Z,60.8
2022-11-16T03:24:40.561Z,63.97
2022-11-16T03:28:40.566Z,68.83
2022-11-16T03:32:40.950Z,65.27
2022-11-16T03:36:40.534Z,65.97
2022-11-16T03:40:40.472Z,70.07
2022-11-16T03:44:40.831Z,66.57
2022-11-16T03:48:40.824Z,67.37
2022-11-16T03:52:41.024Z,66.63
2022-11-16T03:56:41.038Z,61.7
2022-11-16T04:00:40.672Z,66.37
2022-11-16T04:04:40.670Z,68.4
2022-11-16T04:08:40.682Z,70.03
2022-11-16T04:12:40.558Z,68.87
2022-11-16T04:16:40.457Z,68.03
2022-11-16T04:20:40.680Z,67.2
2022-11-16T04:24:40.964Z,64.17
2022-11-16T04:28:40.823Z,62.77
2022-11-16T04:32:40.534Z,66.2
2022-11-16T04:36:40.336Z,59.47
2022-11-16T04:40:41.102Z,60.5
2022-11-16T04:44:40.747Z,59.43
2022-11-16T04:48:40.517Z,56.7
2022-11-16T04:52:40.568Z,64.07
2022-11-16T04:56:40.583Z,56.73
2022-11-16T05:00:40.577Z,61.07
2022-11-16T05:04:40.501Z,59.2
2022-11-16T05:08:40.991Z,60.83
2022-11-16T05:12:39.698Z,56.3
2022-11-16T05:16:40.323Z,62.93
2022-11-16T05:20:40.513Z,53.57
2022-11-16T05:24:40.882Z,60.03
2022-11-16T05:28:41.122Z,61.23
2022-11-16T05:32:41.059Z,59.3
2022-11-16T05:36:40.519Z,59.67
2022-11-16T05:40:40.552Z,62.53
2022-11-16T05:44:40.621Z,59.27
2022-11-16T05:48:40.420Z,59.67
2022-11-16T05:52:40.305Z,56.33
2022-11-16T05:56:40.740Z,55.6
2022-11-16T06:00:40.520Z,61.13
2022-11-16T06:04:40.466Z,53.2
2022-11-16T06:08:40.498Z,55.1
2022-11-16T06:12:41.207Z,58.1
2022-11-16T06:16:39.741Z,53.93
2022-11-16T06:20:40.539Z,55.07
2022-11-16T06:24:40.487Z,57.2
2022-11-16T06:28:40.867Z,56.63
2022-11-16T06:32:40.537Z,56.27
2022-11-16T06:36:40.792Z,57.7
2022-11-16T06:40:40.617Z,60.37
2022-11-16T06:44:39.604Z,58.6
2022-11-16T06:48:40.503Z,58
2022-11-16T06:52:40.758Z,59.37
2022-11-16T06:56:41.191Z,60.37
2022-11-16T07:00:40.623Z,61.77
2022-11-16T07:04:40.341Z,65.3
2022-11-16T07:08:40.752Z,62.97
2022-11-16T07:12:40.757Z,62.6
2022-11-16T07:16:40.620Z,63.1
2022-11-16T07:20:41.332Z,60.37
2022-11-16T07:24:40.477Z,63.13
2022-11-16T07:28:46.586Z,62.57
2022-11-16T07:32:40.144Z,59.73
2022-11-16T07:36:40.071Z,60.5
2022-11-16T07:40:40.667Z,58.23
2022-11-16T07:44:40.188Z,58.23
2022-11-16T07:48:40.498Z,61.1
2022-11-16T07:52:39.976Z,56
2022-11-16T07:56:40.511Z,60.93
2022-11-16T08:00:40.774Z,62.9
2022-11-16T08:04:40.652Z,66.63
2022-11-16T08:08:40.750Z,61.5
2022-11-16T08:12:40.277Z,58.53
2022-11-16T08:16:40.601Z,66.1
2022-11-16T08:20:40.792Z,61.7
2022-11-16T08:24:40.537Z,60.97
2022-11-16T08:28:40.664Z,53.73
2022-11-16T08:32:40.452Z,61.23
2022-11-16T08:36:40.338Z,60.63
2022-11-16T08:40:40.485Z,55.9
2022-11-16T08:44:41.138Z,60.63
2022-11-16T08:48:40.505Z,58.4
2022-11-16T08:52:40.445Z,56.73
2022-11-16T08:56:40.435Z,60.17
2022-11-16T09:00:40.553Z,54.2
2022-11-16T09:04:40.472Z,57.17
2022-11-16T09:08:40.533Z,59.43
2022-11-16T09:12:40.087Z,59.33
2022-11-16T09:16:40.737Z,55.17
2022-11-16T09:20:40.559Z,52.37
2022-11-16T09:24:40.882Z,52.47
2022-11-16T09:28:40.527Z,50.03
2022-11-16T09:32:40.044Z,49.8
2022-11-16T09:36:40.604Z,47.43
2022-11-16T09:40:40.597Z,41.73
2022-11-16T09:44:39.906Z,41.6
2022-11-16T09:48:41.012Z,43.6
2022-11-16T09:52:39.642Z,43.6
2022-11-16T09:56:40.504Z,44.3
2022-11-16T10:00:39.770Z,51.53
2022-11-16T10:04:40.754Z,44.67
2022-11-16T10:08:40.969Z,38.4
2022-11-16T10:12:40.245Z,38.33
2022-11-16T10:16:40.700Z,35.73
2022-11-16T10:20:39.593Z,31.43
2022-11-16T10:24:40.530Z,34.63
2022-11-16T10:28:41.295Z,32.03
2022-11-16T10:32:40.523Z,31.9
2022-11-16T10:36:40.359Z,33.93
2022-11-16T10:40:40.490Z,33.77
2022-11-16T10:44:40.852Z,33.27
2022-11-16T10:48:40.506Z,30.73
2022-11-16T10:52:40.537Z,33.1
2022-11-16T10:56:40.789Z,31.07
2022-11-16T11:00:40.979Z,32.07
2022-11-16T11:04:40.350Z,27.5
2022-11-16T11:08:41.151Z,30.3
2022-11-16T11:12:40.892Z,30.23
2022-11-16T11:16:40.168Z,30.43
2022-11-16T11:20:44.744Z,29.5
2022-11-16T11:24:45.015Z,28.03
2022-11-16T11:28:40.517Z,28.03
2022-11-16T11:32:40.574Z,28.1
2022-11-16T11:36:40.659Z,30.13
2022-11-16T11:40:40.745Z,27.6
2022-11-16T11:44:39.275Z,27.8
2022-11-16T11:48:40.542Z,28.87
2022-11-16T11:52:40.809Z,29.73
2022-11-16T11:56:40.453Z,29.9
2022-11-16T12:00:40.464Z,31.53
2022-11-16T12:04:39.416Z,32.13
2022-11-16T12:08:41.083Z,29.9
2022-11-16T12:12:39.881Z,35.9
2022-11-16T12:16:40.307Z,32.03
2022-11-16T12:20:39.988Z,28.23
2022-11-16T12:24:40.843Z,29.67
2022-11-16T12:28:39.418Z,33
2022-11-16T12:32:40.402Z,27.73
2022-11-16T12:36:40.481Z,28.5
2022-11-16T12:40:40.605Z,29.4
2022-11-16T12:44:40.369Z,28.43
2022-11-16T12:48:40.575Z,25.3
2022-11-16T12:52:40.289Z,25.8
2022-11-16T12:56:43.410Z,28.17
2022-11-16T13:00:40.710Z,27.03
2022-11-16T13:04:40.109Z,27.73
2022-11-16T13:08:40.383Z,29.53
2022-11-16T13:12:39.616Z,31.6
2022-11-16T13:16:40.310Z,24.67
2022-11-16T13:20:40.590Z,27.5
2022-11-16T13:24:40.354Z,22.53
2022-11-16T13:28:41.008Z,22.23
2022-11-16T13:32:39.691Z,22.23
2022-11-16T13:36:40.021Z,23.1
2022-11-16T13:40:40.874Z,18.07
2022-11-16T13:44:39.783Z,20.97
2022-11-16T13:48:40.628Z,19.3
2022-11-16T13:53:31.866Z,21.17
2022-11-16T13:56:40.689Z,18.77
2022-11-16T14:00:40.534Z,18.43
2022-11-16T14:04:40.444Z,18.07
2022-11-16T14:08:39.433Z,19
2022-11-16T14:12:40.922Z,17.13
2022-11-16T14:16:40.238Z,18.93
2022-11-16T14:20:40.750Z,17.47
2022-11-16T14:24:40.562Z,18.7
2022-11-16T14:28:40.476Z,19.1
2022-11-16T14:32:42.737Z,18.97
2022-11-16T14:36:40.268Z,19.73
2022-11-16T14:40:40.577Z,20.47
2022-11-16T14:44:40.732Z,19.77
2022-11-16T14:48:40.473Z,19.37
2022-11-16T14:52:39.716Z,19.53
2022-11-16T14:56:40.652Z,19.37
2022-11-16T15:00:40.363Z,22.3
2022-11-16T15:04:40.587Z,19.37
2022-11-16T15:08:41.293Z,18.83
2022-11-16T15:12:39.701Z,18.23
2022-11-16T15:16:40.296Z,17.9
2022-11-16T15:20:40.403Z,15.07
2022-11-16T15:24:40.279Z,15.97
2022-11-16T15:28:44.617Z,16.83
2022-11-16T15:32:40.019Z,16.17
2022-11-16T15:36:40.336Z,17.67
2022-11-16T15:40:40.507Z,15.47
2022-11-16T15:44:40.471Z,15.1
2022-11-16T15:48:41.295Z,15.63
2022-11-16T15:52:40.657Z,17.43
2022-11-16T15:56:40.013Z,16.47
2022-11-16T16:00:41.248Z,15.7
2022-11-16T16:04:41.204Z,14.53
2022-11-16T16:08:40.459Z,13.93
2022-11-16T16:12:40.545Z,14.83
2022-11-16T16:16:40.694Z,14
2022-11-16T16:20:40.707Z,14.9
2022-11-16T16:24:39.355Z,14.53
2022-11-16T16:28:39.363Z,15
2022-11-16T16:32:40.585Z,16.37
2022-11-16T16:36:39.983Z,15.17
2022-11-16T16:40:41.239Z,16.47
2022-11-16T16:44:40.713Z,16.67
2022-11-16T16:48:44.633Z,17.3
2022-11-16T16:52:39.565Z,14.9
2022-11-16T16:56:40.497Z,14.43
2022-11-16T17:00:40.821Z,17.17
2022-11-16T17:04:40.525Z,16
2022-11-16T17:08:39.504Z,15.73
2022-11-16T17:12:39.907Z,17.9
2022-11-16T17:16:40.234Z,15.83
2022-11-16T17:20:45.246Z,17.47
2022-11-16T17:24:40.438Z,16.8
2022-11-16T17:28:41.483Z,19.47
2022-11-16T17:32:39.932Z,17.53
2022-11-16T17:36:40.346Z,14.53
2022-11-16T17:40:40.313Z,19
2022-11-16T17:44:40.887Z,18.87
2022-11-16T17:48:39.597Z,16.8
2022-11-16T17:52:40.508Z,18.23
2022-11-16T17:56:40.180Z,19.47
2022-11-16T18:00:41.250Z,19.7
2022-11-16T18:04:41.010Z,18.73
2022-11-16T18:08:40.677Z,20.23
2022-11-16T18:12:40.658Z,19.97
2022-11-16T18:16:40.978Z,19.83
2022-11-16T18:20:41.134Z,17.3
2022-11-16T18:24:40.849Z,15.4
2022-11-16T18:28:40.830Z,20.1
2022-11-16T18:32:40.787Z,21.3
2022-11-16T18:36:40.694Z,19.2
2022-11-16T18:40:41.619Z,19.57
2022-11-16T18:44:40.718Z,16.73
2022-11-16T18:48:40.863Z,16.47
2022-11-16T18:52:40.741Z,19.67
2022-11-16T18:56:40.849Z,12.57
2022-11-16T19:00:41.133Z,12.37
2022-11-16T19:04:40.829Z,10.77
2022-11-16T19:08:40.954Z,9.4
2022-11-16T19:12:40.802Z,10.93
2022-11-16T19:16:48.960Z,10.03
2022-11-16T19:20:40.819Z,9.13
2022-11-16T19:24:40.658Z,9.4
2022-11-16T19:28:41.106Z,9
2022-11-16T19:32:41.411Z,9.63
2022-11-16T19:36:40.559Z,9.6
2022-11-16T19:40:40.708Z,8.67
2022-11-16T19:44:41.215Z,8.97
2022-11-16T19:48:40.700Z,8.37
2022-11-16T19:52:40.412Z,8.57
2022-11-16T19:56:40.685Z,8.23
2022-11-16T20:00:41.350Z,6.9
2022-11-16T20:04:41.343Z,8.8
2022-11-16T20:08:40.524Z,9.63
2022-11-16T20:12:40.655Z,8.47
2022-11-16T20:16:40.769Z,12.27
2022-11-16T20:20:41.173Z,11.87
2022-11-16T20:24:41.275Z,11.23
2022-11-16T20:28:40.952Z,11.47
2022-11-16T20:32:41.501Z,12.8
2022-11-16T20:36:40.635Z,13.93
2022-11-16T20:44:40.635Z,15.43
2022-11-16T20:48:39.934Z,13.67
2022-11-16T20:52:43.694Z,15.03
2022-11-16T20:56:40.739Z,15
2022-11-16T21:00:40.595Z,15.4
2022-11-16T21:04:40.562Z,16.77
2022-11-16T21:08:40.536Z,17.57
2022-11-16T21:12:42.890Z,17.3
2022-11-16T21:16:40.549Z,15.23
2022-11-16T21:20:40.710Z,14.7
2022-11-16T21:24:40.591Z,14.43
2022-11-16T21:28:39.581Z,14.47
2022-11-16T21:32:40.669Z,12
2022-11-16T21:36:40.619Z,13.4
2022-11-16T21:40:40.254Z,12.03
2022-11-16T21:44:40.910Z,13.1
2022-11-16T21:48:40.604Z,12.3
2022-11-16T21:52:40.839Z,12.43
2022-11-16T21:56:40.485Z,12
2022-11-16T22:00:40.324Z,11.9
2022-11-16T22:04:40.575Z,11.63
2022-11-16T22:08:40.515Z,11.73
2022-11-16T22:12:41.027Z,13.03
2022-11-16T22:16:40.660Z,11.67
2022-11-16T22:20:41.296Z,14.1
2022-11-16T22:24:40.939Z,14
2022-11-16T22:28:40.463Z,14.17
2022-11-16T22:32:40.430Z,14.07
2022-11-16T22:36:40.558Z,11.97
2022-11-16T22:40:40.683Z,12.13
2022-11-16T22:44:40.753Z,13.73
2022-11-16T22:48:40.587Z,14.5
2022-11-16T22:52:40.696Z,15.2
2022-11-16T22:56:40.496Z,14.97
2022-11-16T23:04:41.001Z,13.9
2022-11-16T23:08:40.558Z,14.07
2022-11-16T23:12:40.540Z,13
2022-11-16T23:16:40.756Z,13.67
2022-11-16T23:20:40.596Z,14.03
2022-11-16T23:24:40.674Z,13.93
2022-11-16T23:28:40.746Z,13.77
2022-11-16T23:32:40.531Z,14.23
2022-11-16T23:36:40.724Z,13.53
2022-11-16T23:40:40.603Z,12.93
2022-11-16T23:44:40.667Z,15.33
2022-11-16T23:48:40.753Z,17
2022-11-16T23:52:40.528Z,16.07
2022-11-16T23:56:40.642Z,15
